createdAt,value
2017-05-30T00:00:22.284Z,1004.21
2017-05-30T00:00:48.450Z,1004.25
2017-05-30T00:01:14.547Z,1004.23
2017-05-30T00:01:40.654Z,1004.22
2017-05-30T00:02:06.774Z,1004.22
2017-05-30T00:02:32.903Z,1004.23
2017-05-30T00:02:59.107Z,1004.18
2017-05-30T00:03:25.216Z,1004.24
2017-05-30T00:03:51.387Z,1004.21
2017-05-30T00:04:17.498Z,1004.24
2017-05-30T00:04:43.594Z,1004.25
2017-05-30T00:05:09.739Z,1004.25
2017-05-30T00:05:35.905Z,1004.22
2017-05-30T00:06:02.005Z,1004.28
2017-05-30T00:06:28.174Z,1004.29
2017-05-30T00:06:54.283Z,1004.3
2017-05-30T00:07:20.435Z,1004.27
2017-05-30T00:07:46.539Z,1004.31
2017-05-30T00:08:12.695Z,1004.33
2017-05-30T00:08:38.811Z,1004.31
2017-05-30T00:09:04.924Z,1004.37
2017-05-30T00:09:31.081Z,1004.36
2017-05-30T00:09:57.203Z,1004.38
2017-05-30T00:10:23.340Z,1004.39
2017-05-30T00:10:49.471Z,1004.39
2017-05-30T00:11:15.565Z,1004.48
2017-05-30T00:11:41.697Z,1004.45
2017-05-30T00:12:07.805Z,1004.48
2017-05-30T00:12:33.903Z,1004.47
2017-05-30T00:13:00.056Z,1004.46
2017-05-30T00:13:26.194Z,1004.51
2017-05-30T00:13:52.355Z,1004.5
2017-05-30T00:14:18.483Z,1004.53
2017-05-30T00:14:44.603Z,1004.52
2017-05-30T00:15:10.763Z,1004.54
2017-05-30T00:15:36.900Z,1004.53
2017-05-30T00:16:03.013Z,1004.52
2017-05-30T00:16:29.143Z,1004.52
2017-05-30T00:16:55.280Z,1004.54
2017-05-30T00:17:21.373Z,1004.55
2017-05-30T00:17:47.474Z,1004.55
2017-05-30T00:18:13.574Z,1004.59
2017-05-30T00:18:39.709Z,1004.64
2017-05-30T00:19:05.869Z,1004.62
2017-05-30T00:19:31.986Z,1004.6
2017-05-30T00:19:58.090Z,1004.63
2017-05-30T00:20:24.203Z,1004.64
2017-05-30T00:20:50.296Z,1004.6
2017-05-30T00:21:16.397Z,1004.64
2017-05-30T00:21:42.535Z,1004.67
2017-05-30T00:22:08.632Z,1004.7
2017-05-30T00:22:34.724Z,1004.69
2017-05-30T00:23:00.893Z,1004.69
2017-05-30T00:23:27.019Z,1004.65
2017-05-30T00:23:53.137Z,1004.63
2017-05-30T00:24:19.271Z,1004.61
2017-05-30T00:24:45.434Z,1004.69
2017-05-30T00:25:11.523Z,1004.6
2017-05-30T00:25:37.628Z,1004.63
2017-05-30T00:26:03.764Z,1004.61
2017-05-30T00:26:29.855Z,1004.56
2017-05-30T00:26:55.959Z,1004.61
2017-05-30T00:27:22.095Z,1004.6
2017-05-30T00:27:48.266Z,1004.58
2017-05-30T00:28:14.389Z,1004.52
2017-05-30T00:28:40.502Z,1004.53
2017-05-30T00:29:06.626Z,1004.53
2017-05-30T00:29:32.813Z,1004.52
2017-05-30T00:29:58.928Z,1004.51
2017-05-30T00:30:25.060Z,1004.53
2017-05-30T00:30:51.225Z,1004.56
2017-05-30T00:31:17.343Z,1004.5
2017-05-30T00:31:43.465Z,1004.51
2017-05-30T00:32:09.576Z,1004.51
2017-05-30T00:32:35.676Z,1004.48
2017-05-30T00:33:01.773Z,1004.51
2017-05-30T00:33:27.914Z,1004.43
2017-05-30T00:33:54.072Z,1004.48
2017-05-30T00:34:20.165Z,1004.49
2017-05-30T00:34:46.303Z,1004.44
2017-05-30T00:35:12.400Z,1004.45
2017-05-30T00:35:38.509Z,1004.48
2017-05-30T00:36:04.656Z,1004.47
2017-05-30T00:36:30.752Z,1004.46
2017-05-30T00:36:56.916Z,1004.48
2017-05-30T00:37:23.015Z,1004.47
2017-05-30T00:37:49.111Z,1004.44
2017-05-30T00:38:15.270Z,1004.47
2017-05-30T00:38:41.426Z,1004.48
2017-05-30T00:39:07.546Z,1004.48
2017-05-30T00:39:33.679Z,1004.51
2017-05-30T00:39:59.843Z,1004.45
2017-05-30T00:40:25.942Z,1004.47
2017-05-30T00:40:52.039Z,1004.46
2017-05-30T00:41:18.134Z,1004.44
2017-05-30T00:41:44.274Z,1004.46
2017-05-30T00:42:10.375Z,1004.45
2017-05-30T00:42:36.494Z,1004.43
2017-05-30T00:43:02.654Z,1004.46
2017-05-30T00:43:28.844Z,1004.44
2017-05-30T00:43:55.012Z,1004.46
2017-05-30T00:44:21.116Z,1004.45
2017-05-30T00:44:47.279Z,1004.39
2017-05-30T00:45:13.398Z,1004.42
2017-05-30T00:45:39.497Z,1004.44
2017-05-30T00:46:05.599Z,1004.41
2017-05-30T00:46:31.755Z,1004.4
2017-05-30T00:46:57.948Z,1004.41
2017-05-30T00:47:24.063Z,1004.42
2017-05-30T00:47:50.167Z,1004.36
2017-05-30T00:48:16.279Z,1004.46
2017-05-30T00:48:42.399Z,1004.43
2017-05-30T00:49:08.522Z,1004.44
2017-05-30T00:49:34.686Z,1004.42
2017-05-30T00:50:00.773Z,1004.42
2017-05-30T00:50:26.868Z,1004.4
2017-05-30T00:50:53.040Z,1004.41
2017-05-30T00:51:19.141Z,1004.38
2017-05-30T00:51:45.245Z,1004.48
2017-05-30T00:52:11.339Z,1004.41
2017-05-30T00:52:37.466Z,1004.42
2017-05-30T00:53:03.576Z,1004.42
2017-05-30T00:53:29.725Z,1004.42
2017-05-30T00:53:55.868Z,1004.41
2017-05-30T00:54:22.010Z,1004.44
2017-05-30T00:54:48.163Z,1004.45
2017-05-30T00:55:14.311Z,1004.49
2017-05-30T00:55:40.417Z,1004.45
2017-05-30T00:56:06.520Z,1004.48
2017-05-30T00:56:32.614Z,1004.5
2017-05-30T00:56:58.746Z,1004.51
2017-05-30T00:57:24.840Z,1004.56
2017-05-30T00:57:51.011Z,1004.56
2017-05-30T00:58:17.111Z,1004.58
2017-05-30T00:58:43.204Z,1004.57
2017-05-30T00:59:09.314Z,1004.55
2017-05-30T00:59:35.473Z,1004.55
2017-05-30T01:00:01.591Z,1004.51
2017-05-30T01:00:27.695Z,1004.48
2017-05-30T01:00:53.807Z,1004.51
2017-05-30T01:01:19.924Z,1004.53
2017-05-30T01:01:46.027Z,1004.5
2017-05-30T01:02:12.163Z,1004.49
2017-05-30T01:02:38.281Z,1004.52
2017-05-30T01:03:04.414Z,1004.54
2017-05-30T01:03:30.509Z,1004.53
2017-05-30T01:03:56.667Z,1004.56
2017-05-30T01:04:22.777Z,1004.61
2017-05-30T01:04:48.896Z,1004.64
2017-05-30T01:05:15.044Z,1004.65
2017-05-30T01:05:41.153Z,1004.68
2017-05-30T01:06:07.274Z,1004.7
2017-05-30T01:06:33.374Z,1004.71
2017-05-30T01:06:59.483Z,1004.77
2017-05-30T01:07:25.579Z,1004.76
2017-05-30T01:07:51.699Z,1004.76
2017-05-30T01:08:17.866Z,1004.77
2017-05-30T01:08:43.993Z,1004.72
2017-05-30T01:09:10.110Z,1004.78
2017-05-30T01:09:36.273Z,1004.76
2017-05-30T01:10:02.403Z,1004.77
2017-05-30T01:10:28.498Z,1004.74
2017-05-30T01:10:54.604Z,1004.8
2017-05-30T01:11:20.714Z,1004.79
2017-05-30T01:11:46.830Z,1004.78
2017-05-30T01:12:12.959Z,1004.75
2017-05-30T01:12:39.121Z,1004.75
2017-05-30T01:13:05.240Z,1004.76
2017-05-30T01:13:31.415Z,1004.81
2017-05-30T01:13:57.541Z,1004.74
2017-05-30T01:14:23.672Z,1004.74
2017-05-30T01:14:49.781Z,1004.75
2017-05-30T01:15:15.871Z,1004.76
2017-05-30T01:15:41.998Z,1004.78
2017-05-30T01:16:08.110Z,1004.8
2017-05-30T01:16:34.255Z,1004.82
2017-05-30T01:17:00.378Z,1004.81
2017-05-30T01:17:26.489Z,1004.81
2017-05-30T01:17:52.634Z,1004.84
2017-05-30T01:18:18.803Z,1004.82
2017-05-30T01:18:44.944Z,1004.78
2017-05-30T01:19:11.071Z,1004.83
2017-05-30T01:19:37.177Z,1004.81
2017-05-30T01:20:03.347Z,1004.82
2017-05-30T01:20:29.447Z,1004.77
2017-05-30T01:20:55.558Z,1004.76
2017-05-30T01:21:21.655Z,1004.79
2017-05-30T01:21:47.747Z,1004.79
2017-05-30T01:22:13.886Z,1004.77
2017-05-30T01:22:40.044Z,1004.8
2017-05-30T01:23:06.187Z,1004.75
2017-05-30T01:23:32.353Z,1004.73
2017-05-30T01:23:58.455Z,1004.71
2017-05-30T01:24:24.574Z,1004.68
2017-05-30T01:24:50.706Z,1004.67
2017-05-30T01:25:16.851Z,1004.69
2017-05-30T01:25:42.993Z,1004.65
2017-05-30T01:26:09.120Z,1004.62
2017-05-30T01:26:35.237Z,1004.64
2017-05-30T01:27:01.374Z,1004.68
2017-05-30T01:27:27.477Z,1004.63
2017-05-30T01:27:53.595Z,1004.69
2017-05-30T01:28:19.730Z,1004.67
2017-05-30T01:28:45.892Z,1004.69
2017-05-30T01:29:12.009Z,1004.73
2017-05-30T01:29:38.163Z,1004.72
2017-05-30T01:30:04.326Z,1004.76
2017-05-30T01:30:30.764Z,1004.79
2017-05-30T01:30:56.869Z,1004.74
2017-05-30T01:31:22.963Z,1004.76
2017-05-30T01:31:49.095Z,1004.7
2017-05-30T01:32:15.205Z,1004.72
2017-05-30T01:32:41.294Z,1004.66
2017-05-30T01:33:07.447Z,1004.68
2017-05-30T01:33:33.556Z,1004.6
2017-05-30T01:33:59.672Z,1004.6
2017-05-30T01:34:25.818Z,1004.53
2017-05-30T01:34:51.955Z,1004.5
2017-05-30T01:35:18.080Z,1004.54
2017-05-30T01:35:44.176Z,1004.5
2017-05-30T01:36:10.309Z,1004.47
2017-05-30T01:36:36.465Z,1004.46
2017-05-30T01:37:02.576Z,1004.46
2017-05-30T01:37:28.669Z,1004.49
2017-05-30T01:37:54.794Z,1004.5
2017-05-30T01:38:20.931Z,1004.47
2017-05-30T01:38:47.084Z,1004.46
2017-05-30T01:39:13.202Z,1004.5
2017-05-30T01:39:39.341Z,1004.52
2017-05-30T01:40:05.470Z,1004.49
2017-05-30T01:40:31.564Z,1004.52
2017-05-30T01:40:57.674Z,1004.55
2017-05-30T01:41:23.776Z,1004.56
2017-05-30T01:41:49.878Z,1004.54
2017-05-30T01:42:16.000Z,1004.59
2017-05-30T01:42:42.117Z,1004.57
2017-05-30T01:43:08.285Z,1004.6
2017-05-30T01:43:34.411Z,1004.58
2017-05-30T01:44:00.530Z,1004.57
2017-05-30T01:44:26.667Z,1004.64
2017-05-30T01:44:52.771Z,1004.59
2017-05-30T01:45:18.890Z,1004.55
2017-05-30T01:45:44.993Z,1004.56
2017-05-30T01:46:11.105Z,1004.56
2017-05-30T01:46:37.195Z,1004.56
2017-05-30T01:47:03.298Z,1004.57
2017-05-30T01:47:29.391Z,1004.63
2017-05-30T01:47:55.528Z,1004.61
2017-05-30T01:48:21.632Z,1004.61
2017-05-30T01:48:47.747Z,1004.62
2017-05-30T01:49:13.908Z,1004.69
2017-05-30T01:49:40.017Z,1004.74
2017-05-30T01:50:06.133Z,1004.67
2017-05-30T01:50:32.261Z,1004.73
2017-05-30T01:50:58.396Z,1004.76
2017-05-30T01:51:24.513Z,1004.75
2017-05-30T01:51:50.660Z,1004.76
2017-05-30T01:52:16.796Z,1004.8
2017-05-30T01:52:42.894Z,1004.75
2017-05-30T01:53:08.989Z,1004.79
2017-05-30T01:53:35.155Z,1004.8
2017-05-30T01:54:01.282Z,1004.8
2017-05-30T01:54:27.376Z,1004.79
2017-05-30T01:54:53.568Z,1004.81
2017-05-30T01:55:19.754Z,1004.81
2017-05-30T01:55:45.847Z,1004.77
2017-05-30T01:56:11.976Z,1004.81
2017-05-30T01:56:38.086Z,1004.78
2017-05-30T01:57:04.177Z,1004.78
2017-05-30T01:57:30.308Z,1004.82
2017-05-30T01:57:56.500Z,1004.8
2017-05-30T01:58:22.643Z,1004.83
2017-05-30T01:58:48.777Z,1004.74
2017-05-30T01:59:14.898Z,1004.76
2017-05-30T01:59:41.004Z,1004.78
2017-05-30T02:00:07.169Z,1004.78
2017-05-30T02:00:33.257Z,1004.7
2017-05-30T02:00:59.384Z,1004.72
2017-05-30T02:01:25.493Z,1004.7
2017-05-30T02:01:51.617Z,1004.72
2017-05-30T02:02:17.740Z,1004.71
2017-05-30T02:02:43.903Z,1004.7
2017-05-30T02:03:10.029Z,1004.69
2017-05-30T02:03:36.173Z,1004.7
2017-05-30T02:04:02.334Z,1004.71
2017-05-30T02:04:28.470Z,1004.71
2017-05-30T02:04:54.632Z,1004.68
2017-05-30T02:05:20.751Z,1004.72
2017-05-30T02:05:46.850Z,1004.72
2017-05-30T02:06:12.960Z,1004.69
2017-05-30T02:06:39.059Z,1004.69
2017-05-30T02:07:05.202Z,1004.67
2017-05-30T02:07:31.316Z,1004.7
2017-05-30T02:07:57.468Z,1004.69
2017-05-30T02:08:23.586Z,1004.69
2017-05-30T02:08:49.722Z,1004.69
2017-05-30T02:09:15.881Z,1004.71
2017-05-30T02:09:42.006Z,1004.68
2017-05-30T02:10:08.129Z,1004.66
2017-05-30T02:10:34.222Z,1004.68
2017-05-30T02:11:00.333Z,1004.6
2017-05-30T02:11:26.433Z,1004.61
2017-05-30T02:11:52.550Z,1004.61
2017-05-30T02:12:18.662Z,1004.6
2017-05-30T02:12:44.766Z,1004.54
2017-05-30T02:13:10.883Z,1004.61
2017-05-30T02:13:37.016Z,1004.52
2017-05-30T02:14:03.124Z,1004.51
2017-05-30T02:14:29.264Z,1004.55
2017-05-30T02:14:55.419Z,1004.52
2017-05-30T02:15:21.556Z,1004.49
2017-05-30T02:15:47.652Z,1004.47
2017-05-30T02:16:13.752Z,1004.46
2017-05-30T02:16:39.860Z,1004.46
2017-05-30T02:17:05.958Z,1004.44
2017-05-30T02:17:32.075Z,1004.43
2017-05-30T02:17:58.244Z,1004.36
2017-05-30T02:18:24.399Z,1004.37
2017-05-30T02:18:50.517Z,1004.38
2017-05-30T02:19:16.654Z,1004.35
2017-05-30T02:19:42.813Z,1004.42
2017-05-30T02:20:08.934Z,1004.39
2017-05-30T02:20:35.048Z,1004.46
2017-05-30T02:21:01.134Z,1004.5
2017-05-30T02:21:27.245Z,1004.56
2017-05-30T02:21:53.374Z,1004.62
2017-05-30T02:22:19.491Z,1004.69
2017-05-30T02:22:45.600Z,1004.75
2017-05-30T02:23:11.730Z,1004.81
2017-05-30T02:23:37.899Z,1004.84
2017-05-30T02:24:04.028Z,1004.85
2017-05-30T02:24:30.165Z,1004.91
2017-05-30T02:24:56.279Z,1004.96
2017-05-30T02:25:22.380Z,1004.9
2017-05-30T02:25:51.505Z,1004.9
2017-05-30T02:26:17.965Z,1004.94
2017-05-30T02:26:44.083Z,1004.92
2017-05-30T02:27:10.210Z,1004.96
2017-05-30T02:27:36.412Z,1004.88
2017-05-30T02:28:02.501Z,1004.94
2017-05-30T02:28:28.668Z,1004.92
2017-05-30T02:28:54.794Z,1004.9
2017-05-30T02:29:20.914Z,1004.89
2017-05-30T02:29:47.052Z,1004.96
2017-05-30T02:30:13.184Z,1004.96
2017-05-30T02:30:39.276Z,1004.92
2017-05-30T02:31:05.381Z,1004.97
2017-05-30T02:31:31.492Z,1005.04
2017-05-30T02:31:57.590Z,1005.06
2017-05-30T02:32:23.689Z,1005.06
2017-05-30T02:32:49.781Z,1005.07
2017-05-30T02:33:15.944Z,1005.07
2017-05-30T02:33:42.103Z,1005.1
2017-05-30T02:34:08.219Z,1005.09
2017-05-30T02:34:34.326Z,1005.08
2017-05-30T02:35:00.435Z,1005.12
2017-05-30T02:35:26.526Z,1005.12
2017-05-30T02:35:52.629Z,1005.12
2017-05-30T02:36:18.737Z,1005.13
2017-05-30T02:36:44.853Z,1005.13
2017-05-30T02:37:10.951Z,1005.18
2017-05-30T02:37:37.063Z,1005.14
2017-05-30T02:38:03.158Z,1005.15
2017-05-30T02:38:29.253Z,1005.1
2017-05-30T02:38:55.392Z,1005.07
2017-05-30T02:39:21.492Z,1005.05
2017-05-30T02:39:47.587Z,1005.05
2017-05-30T02:40:13.697Z,1004.99
2017-05-30T02:40:39.800Z,1005.01
2017-05-30T02:41:05.892Z,1005.01
2017-05-30T02:41:31.997Z,1005.09
2017-05-30T02:41:58.107Z,1005.05
2017-05-30T02:42:24.199Z,1005.06
2017-05-30T02:42:50.352Z,1005.07
2017-05-30T02:43:16.453Z,1005.06
2017-05-30T02:43:42.559Z,1005.06
2017-05-30T02:44:08.692Z,1005.06
2017-05-30T02:44:34.814Z,1005.07
2017-05-30T02:45:00.920Z,1005.05
2017-05-30T02:45:27.028Z,1005.03
2017-05-30T02:45:53.145Z,1005.01
2017-05-30T02:46:19.247Z,1005.02
2017-05-30T02:46:45.357Z,1005
2017-05-30T02:47:11.451Z,1005.01
2017-05-30T02:47:37.624Z,1005.02
2017-05-30T02:48:03.761Z,1005.02
2017-05-30T02:48:29.936Z,1005
2017-05-30T02:48:56.044Z,1005
2017-05-30T02:49:22.134Z,1005.02
2017-05-30T02:49:48.261Z,1005.04
2017-05-30T02:50:14.368Z,1005.02
2017-05-30T02:50:40.485Z,1005.07
2017-05-30T02:51:06.610Z,1005.07
2017-05-30T02:51:32.748Z,1005.1
2017-05-30T02:51:58.844Z,1005.09
2017-05-30T02:52:24.954Z,1005.06
2017-05-30T02:52:51.094Z,1005.07
2017-05-30T02:53:17.219Z,1005.04
2017-05-30T02:53:43.361Z,1004.99
2017-05-30T02:54:09.496Z,1004.97
2017-05-30T02:54:35.616Z,1004.95
2017-05-30T02:55:01.732Z,1004.93
2017-05-30T02:55:27.823Z,1004.94
2017-05-30T02:55:53.918Z,1004.95
2017-05-30T02:56:20.332Z,1004.95
2017-05-30T02:56:46.459Z,1004.98
2017-05-30T02:57:12.554Z,1004.97
2017-05-30T02:57:38.661Z,1005.02
2017-05-30T02:58:04.764Z,1005.05
2017-05-30T02:58:30.857Z,1005.1
2017-05-30T02:58:56.989Z,1005.08
2017-05-30T02:59:23.096Z,1005.07
2017-05-30T02:59:49.241Z,1005.07
2017-05-30T03:00:15.341Z,1005.02
2017-05-30T03:00:41.435Z,1005.04
2017-05-30T03:01:07.541Z,1005.02
2017-05-30T03:01:33.670Z,1005.04
2017-05-30T03:01:59.765Z,1005.04
2017-05-30T03:02:25.935Z,1005.07
2017-05-30T03:02:52.152Z,1005.08
2017-05-30T03:03:18.266Z,1005.13
2017-05-30T03:03:44.444Z,1005.1
2017-05-30T03:04:10.553Z,1005.14
2017-05-30T03:04:36.696Z,1005.15
2017-05-30T03:05:02.818Z,1005.13
2017-05-30T03:05:28.916Z,1005.13
2017-05-30T03:05:55.046Z,1005.07
2017-05-30T03:06:21.185Z,1005.12
2017-05-30T03:06:47.277Z,1005.14
2017-05-30T03:07:13.381Z,1005.14
2017-05-30T03:07:39.490Z,1005.17
2017-05-30T03:08:05.636Z,1005.16
2017-05-30T03:08:31.808Z,1005.15
2017-05-30T03:08:57.944Z,1005.19
2017-05-30T03:09:24.068Z,1005.13
2017-05-30T03:09:50.184Z,1005.17
2017-05-30T03:10:16.350Z,1005.17
2017-05-30T03:10:42.479Z,1005.13
2017-05-30T03:11:08.590Z,1005.12
2017-05-30T03:11:34.704Z,1005.06
2017-05-30T03:12:00.830Z,1005.08
2017-05-30T03:12:26.940Z,1005.06
2017-05-30T03:12:53.115Z,1005.09
2017-05-30T03:13:19.233Z,1005.05
2017-05-30T03:13:45.405Z,1005.03
2017-05-30T03:14:11.530Z,1005.06
2017-05-30T03:14:37.651Z,1005
2017-05-30T03:15:03.820Z,1005.04
2017-05-30T03:15:29.948Z,1005.02
2017-05-30T03:15:56.042Z,1005.04
2017-05-30T03:16:22.170Z,1005.02
2017-05-30T03:16:48.262Z,1005.09
2017-05-30T03:17:14.376Z,1005.15
2017-05-30T03:17:40.530Z,1005.15
2017-05-30T03:18:06.625Z,1005.2
2017-05-30T03:18:32.785Z,1005.2
2017-05-30T03:18:58.945Z,1005.26
2017-05-30T03:19:25.062Z,1005.23
2017-05-30T03:19:51.172Z,1005.26
2017-05-30T03:20:17.281Z,1005.24
2017-05-30T03:20:43.394Z,1005.26
2017-05-30T03:21:09.543Z,1005.27
2017-05-30T03:21:35.705Z,1005.26
2017-05-30T03:22:01.798Z,1005.33
2017-05-30T03:22:27.898Z,1005.29
2017-05-30T03:22:54.005Z,1005.32
2017-05-30T03:23:20.104Z,1005.35
2017-05-30T03:23:46.248Z,1005.34
2017-05-30T03:24:12.384Z,1005.35
2017-05-30T03:24:38.483Z,1005.33
2017-05-30T03:25:04.624Z,1005.33
2017-05-30T03:25:30.735Z,1005.41
2017-05-30T03:25:56.891Z,1005.39
2017-05-30T03:26:23.010Z,1005.41
2017-05-30T03:26:49.119Z,1005.45
2017-05-30T03:27:15.229Z,1005.43
2017-05-30T03:27:41.350Z,1005.43
2017-05-30T03:28:07.476Z,1005.46
2017-05-30T03:28:33.595Z,1005.48
2017-05-30T03:28:59.758Z,1005.5
2017-05-30T03:29:25.889Z,1005.47
2017-05-30T03:29:52.006Z,1005.47
2017-05-30T03:30:18.111Z,1005.45
2017-05-30T03:30:44.246Z,1005.47
2017-05-30T03:31:10.337Z,1005.43
2017-05-30T03:31:36.441Z,1005.42
2017-05-30T03:32:02.576Z,1005.46
2017-05-30T03:32:28.672Z,1005.49
2017-05-30T03:32:54.773Z,1005.48
2017-05-30T03:33:20.873Z,1005.49
2017-05-30T03:33:47.003Z,1005.48
2017-05-30T03:34:13.138Z,1005.45
2017-05-30T03:34:39.252Z,1005.45
2017-05-30T03:35:05.405Z,1005.43
2017-05-30T03:35:31.515Z,1005.47
2017-05-30T03:35:57.633Z,1005.43
2017-05-30T03:36:23.742Z,1005.45
2017-05-30T03:36:49.851Z,1005.46
2017-05-30T03:37:15.947Z,1005.48
2017-05-30T03:37:42.088Z,1005.52
2017-05-30T03:38:08.201Z,1005.49
2017-05-30T03:38:34.329Z,1005.49
2017-05-30T03:39:00.434Z,1005.51
2017-05-30T03:39:26.600Z,1005.53
2017-05-30T03:39:52.697Z,1005.5
2017-05-30T03:40:18.834Z,1005.52
2017-05-30T03:40:44.930Z,1005.57
2017-05-30T03:41:11.043Z,1005.56
2017-05-30T03:41:37.158Z,1005.54
2017-05-30T03:42:03.285Z,1005.56
2017-05-30T03:42:29.380Z,1005.54
2017-05-30T03:42:55.489Z,1005.55
2017-05-30T03:43:21.590Z,1005.56
2017-05-30T03:43:47.709Z,1005.56
2017-05-30T03:44:13.867Z,1005.57
2017-05-30T03:44:40.038Z,1005.59
2017-05-30T03:45:06.207Z,1005.62
2017-05-30T03:45:32.358Z,1005.63
2017-05-30T03:45:58.502Z,1005.64
2017-05-30T03:46:24.640Z,1005.62
2017-05-30T03:46:50.742Z,1005.64
2017-05-30T03:47:16.833Z,1005.61
2017-05-30T03:47:42.962Z,1005.64
2017-05-30T03:48:09.122Z,1005.67
2017-05-30T03:48:35.213Z,1005.65
2017-05-30T03:49:01.342Z,1005.62
2017-05-30T03:49:27.504Z,1005.66
2017-05-30T03:49:53.622Z,1005.64
2017-05-30T03:50:19.726Z,1005.63
2017-05-30T03:50:45.866Z,1005.66
2017-05-30T03:51:11.975Z,1005.7
2017-05-30T03:51:38.084Z,1005.73
2017-05-30T03:52:04.198Z,1005.66
2017-05-30T03:52:30.300Z,1005.67
2017-05-30T03:52:56.436Z,1005.67
2017-05-30T03:53:22.554Z,1005.72
2017-05-30T03:53:48.701Z,1005.73
2017-05-30T03:54:14.843Z,1005.68
2017-05-30T03:54:40.938Z,1005.69
2017-05-30T03:55:07.059Z,1005.68
2017-05-30T03:55:33.183Z,1005.68
2017-05-30T03:55:59.286Z,1005.7
2017-05-30T03:56:25.424Z,1005.71
2017-05-30T03:56:51.542Z,1005.72
2017-05-30T03:57:17.642Z,1005.75
2017-05-30T03:57:43.776Z,1005.78
2017-05-30T03:58:09.903Z,1005.71
2017-05-30T03:58:35.998Z,1005.71
2017-05-30T03:59:02.110Z,1005.72
2017-05-30T03:59:28.236Z,1005.72
2017-05-30T03:59:54.331Z,1005.71
2017-05-30T04:00:20.463Z,1005.72
2017-05-30T04:00:46.593Z,1005.7
2017-05-30T04:01:12.696Z,1005.72
2017-05-30T04:01:38.793Z,1005.72
2017-05-30T04:02:04.910Z,1005.7
2017-05-30T04:02:31.023Z,1005.69
2017-05-30T04:02:57.152Z,1005.67
2017-05-30T04:03:23.294Z,1005.71
2017-05-30T04:03:49.433Z,1005.7
2017-05-30T04:04:15.534Z,1005.64
2017-05-30T04:04:41.654Z,1005.69
2017-05-30T04:05:07.761Z,1005.67
2017-05-30T04:05:33.897Z,1005.69
2017-05-30T04:05:59.988Z,1005.7
2017-05-30T04:06:26.144Z,1005.7
2017-05-30T04:06:52.280Z,1005.72
2017-05-30T04:07:18.374Z,1005.72
2017-05-30T04:07:44.524Z,1005.74
2017-05-30T04:08:10.635Z,1005.74
2017-05-30T04:08:36.784Z,1005.75
2017-05-30T04:09:02.876Z,1005.76
2017-05-30T04:09:29.016Z,1005.78
2017-05-30T04:09:55.140Z,1005.75
2017-05-30T04:10:21.235Z,1005.77
2017-05-30T04:10:47.374Z,1005.72
2017-05-30T04:11:13.478Z,1005.77
2017-05-30T04:11:39.594Z,1005.76
2017-05-30T04:12:05.741Z,1005.75
2017-05-30T04:12:31.832Z,1005.74
2017-05-30T04:12:57.974Z,1005.71
2017-05-30T04:13:24.072Z,1005.78
2017-05-30T04:13:50.166Z,1005.73
2017-05-30T04:14:16.267Z,1005.77
2017-05-30T04:14:42.397Z,1005.78
2017-05-30T04:15:08.492Z,1005.78
2017-05-30T04:15:34.600Z,1005.77
2017-05-30T04:16:00.709Z,1005.76
2017-05-30T04:16:26.796Z,1005.76
2017-05-30T04:16:52.950Z,1005.79
2017-05-30T04:17:19.085Z,1005.8
2017-05-30T04:17:45.203Z,1005.77
2017-05-30T04:18:11.336Z,1005.81
2017-05-30T04:18:37.456Z,1005.78
2017-05-30T04:19:03.563Z,1005.82
2017-05-30T04:19:29.730Z,1005.85
2017-05-30T04:19:55.845Z,1005.79
2017-05-30T04:20:22.002Z,1005.81
2017-05-30T04:20:48.138Z,1005.84
2017-05-30T04:21:14.311Z,1005.86
2017-05-30T04:21:40.461Z,1005.87
2017-05-30T04:22:06.570Z,1005.87
2017-05-30T04:22:32.666Z,1005.89
2017-05-30T04:22:58.757Z,1005.88
2017-05-30T04:23:24.862Z,1005.89
2017-05-30T04:23:51.041Z,1005.88
2017-05-30T04:24:17.205Z,1005.89
2017-05-30T04:24:43.322Z,1005.88
2017-05-30T04:25:09.471Z,1005.87
2017-05-30T04:25:35.582Z,1005.89
2017-05-30T04:26:01.678Z,1005.91
2017-05-30T04:26:27.796Z,1005.89
2017-05-30T04:26:53.934Z,1005.88
2017-05-30T04:27:20.033Z,1005.91
2017-05-30T04:27:46.148Z,1005.93
2017-05-30T04:28:12.282Z,1005.92
2017-05-30T04:28:38.384Z,1005.94
2017-05-30T04:29:04.512Z,1005.94
2017-05-30T04:29:30.661Z,1005.93
2017-05-30T04:29:56.779Z,1005.93
2017-05-30T04:30:22.918Z,1005.94
2017-05-30T04:30:49.016Z,1005.93
2017-05-30T04:31:15.107Z,1005.9
2017-05-30T04:31:41.239Z,1005.93
2017-05-30T04:32:07.342Z,1005.93
2017-05-30T04:32:33.434Z,1005.97
2017-05-30T04:32:59.565Z,1005.93
2017-05-30T04:33:25.674Z,1005.94
2017-05-30T04:33:51.814Z,1005.91
2017-05-30T04:34:17.915Z,1005.94
2017-05-30T04:34:44.013Z,1005.92
2017-05-30T04:35:10.146Z,1005.92
2017-05-30T04:35:36.279Z,1005.96
2017-05-30T04:36:02.372Z,1005.93
2017-05-30T04:36:28.478Z,1005.89
2017-05-30T04:36:54.589Z,1005.86
2017-05-30T04:37:20.678Z,1005.83
2017-05-30T04:37:46.805Z,1005.88
2017-05-30T04:38:12.944Z,1005.89
2017-05-30T04:38:39.036Z,1005.86
2017-05-30T04:39:05.135Z,1005.87
2017-05-30T04:39:31.246Z,1005.83
2017-05-30T04:39:57.368Z,1005.88
2017-05-30T04:40:23.474Z,1005.88
2017-05-30T04:40:49.590Z,1005.88
2017-05-30T04:41:15.717Z,1005.87
2017-05-30T04:41:41.827Z,1005.85
2017-05-30T04:42:07.920Z,1005.86
2017-05-30T04:42:34.019Z,1005.89
2017-05-30T04:43:00.182Z,1005.91
2017-05-30T04:43:26.300Z,1005.94
2017-05-30T04:43:52.393Z,1005.96
2017-05-30T04:44:18.534Z,1005.93
2017-05-30T04:44:44.663Z,1005.91
2017-05-30T04:45:10.754Z,1005.92
2017-05-30T04:45:36.895Z,1005.9
2017-05-30T04:46:03.042Z,1005.9
2017-05-30T04:46:29.153Z,1005.89
2017-05-30T04:46:55.300Z,1005.93
2017-05-30T04:47:21.392Z,1005.91
2017-05-30T04:47:47.503Z,1005.91
2017-05-30T04:48:13.631Z,1005.95
2017-05-30T04:48:39.747Z,1005.9
2017-05-30T04:49:05.883Z,1005.96
2017-05-30T04:49:32.014Z,1005.93
2017-05-30T04:49:58.133Z,1005.95
2017-05-30T04:50:24.262Z,1005.96
2017-05-30T04:50:50.370Z,1005.95
2017-05-30T04:51:16.499Z,1005.97
2017-05-30T04:51:42.625Z,1005.98
2017-05-30T04:52:08.766Z,1006.01
2017-05-30T04:52:34.884Z,1005.97
2017-05-30T04:53:01.007Z,1006.03
2017-05-30T04:53:27.174Z,1006.06
2017-05-30T04:53:53.324Z,1006.03
2017-05-30T04:54:19.438Z,1006.08
2017-05-30T04:54:45.551Z,1006.07
2017-05-30T04:55:11.679Z,1006.1
2017-05-30T04:55:37.796Z,1006.08
2017-05-30T04:56:03.928Z,1006.07
2017-05-30T04:56:30.059Z,1006.08
2017-05-30T04:56:56.186Z,1006.04
2017-05-30T04:57:22.283Z,1006.03
2017-05-30T04:57:48.775Z,1006.08
2017-05-30T04:58:14.943Z,1006.08
2017-05-30T04:58:41.043Z,1006.07
2017-05-30T04:59:07.173Z,1006.08
2017-05-30T04:59:33.244Z,1006.05
2017-05-30T04:59:59.347Z,1006.05
2017-05-30T05:00:25.443Z,1006.03
2017-05-30T05:00:51.552Z,1006.03
2017-05-30T05:01:17.687Z,1006.06
2017-05-30T05:01:43.778Z,1006.07
2017-05-30T05:02:09.905Z,1006.05
2017-05-30T05:02:36.078Z,1006.1
2017-05-30T05:03:02.211Z,1006.05
2017-05-30T05:03:28.317Z,1006.07
2017-05-30T05:03:54.411Z,1006.09
2017-05-30T05:04:20.545Z,1006.07
2017-05-30T05:04:46.654Z,1006.07
2017-05-30T05:05:12.769Z,1006.02
2017-05-30T05:05:38.899Z,1006.03
2017-05-30T05:06:05.007Z,1006.04
2017-05-30T05:06:31.102Z,1006.06
2017-05-30T05:06:57.327Z,1006.06
2017-05-30T05:07:23.438Z,1006.05
2017-05-30T05:07:49.562Z,1006.05
2017-05-30T05:08:15.670Z,1006.04
2017-05-30T05:08:41.786Z,1006.05
2017-05-30T05:09:07.914Z,1006
2017-05-30T05:09:34.049Z,1006.03
2017-05-30T05:10:00.142Z,1006.02
2017-05-30T05:10:26.264Z,1006
2017-05-30T05:10:52.400Z,1005.97
2017-05-30T05:11:18.522Z,1005.97
2017-05-30T05:11:44.614Z,1006.04
2017-05-30T05:12:10.728Z,1006.01
2017-05-30T05:12:36.830Z,1006.04
2017-05-30T05:13:02.921Z,1006.06
2017-05-30T05:13:29.029Z,1006.04
2017-05-30T05:13:55.126Z,1006.04
2017-05-30T05:14:21.236Z,1006.05
2017-05-30T05:14:47.334Z,1006.06
2017-05-30T05:15:13.429Z,1006.07
2017-05-30T05:15:39.543Z,1006.1
2017-05-30T05:16:05.733Z,1006.13
2017-05-30T05:16:31.770Z,1006.07
2017-05-30T05:16:57.881Z,1006.13
2017-05-30T05:17:23.986Z,1006.12